createdAt,value
2023-04-16T00:00:48.642Z,0.00
2023-04-16T00:01:48.683Z,0.00
2023-04-16T00:02:48.471Z,0.00
2023-04-16T00:03:48.797Z,0.00
2023-04-16T00:04:48.682Z,0.00
2023-04-16T00:05:48.579Z,0.00
2023-04-16T00:06:48.600Z,0.00
2023-04-16T00:07:48.497Z,0.00
2023-04-16T00:08:48.476Z,0.00
2023-04-16T00:09:48.505Z,0.00
2023-04-16T00:10:48.424Z,0.00
2023-04-16T00:11:48.481Z,0.00
2023-04-16T00:12:48.392Z,0.00
2023-04-16T00:13:48.455Z,0.00
2023-04-16T00:14:48.440Z,0.00
2023-04-16T00:15:48.455Z,0.00
2023-04-16T00:16:48.513Z,0.00
2023-04-16T00:17:48.445Z,0.00
2023-04-16T00:18:48.413Z,0.00
2023-04-16T00:19:48.412Z,0.00
2023-04-16T00:20:48.244Z,0.00
2023-04-16T00:21:48.386Z,0.00
2023-04-16T00:22:48.355Z,0.00
2023-04-16T00:23:48.350Z,0.00
2023-04-16T00:24:48.408Z,0.00
2023-04-16T00:25:48.325Z,0.00
2023-04-16T00:26:48.314Z,0.00
2023-04-16T00:27:48.250Z,0.00
2023-04-16T00:28:48.283Z,0.00
2023-04-16T00:29:48.354Z,0.00
2023-04-16T00:30:48.355Z,0.00
2023-04-16T00:31:48.227Z,0.00
2023-04-16T00:32:48.275Z,0.00
2023-04-16T00:33:48.248Z,0.00
2023-04-16T00:34:48.240Z,0.00
2023-04-16T00:35:48.319Z,0.00
2023-04-16T00:36:48.212Z,0.00
2023-04-16T00:37:48.112Z,0.00
2023-04-16T00:38:48.074Z,0.00
2023-04-16T00:39:48.168Z,0.00
2023-04-16T00:40:48.114Z,0.00
2023-04-16T00:41:48.112Z,0.00
2023-04-16T00:42:48.142Z,0.00
2023-04-16T00:43:48.211Z,0.00
2023-04-16T00:44:48.115Z,0.00
2023-04-16T00:45:48.122Z,0.00
2023-04-16T00:46:48.118Z,0.00
2023-04-16T00:47:48.196Z,0.00
2023-04-16T00:48:48.043Z,0.00
2023-04-16T00:49:48.114Z,0.00
2023-04-16T00:50:48.024Z,0.00
2023-04-16T00:51:48.014Z,0.00
2023-04-16T00:52:47.925Z,0.00
2023-04-16T00:53:48.101Z,0.00
2023-04-16T00:54:48.033Z,0.00
2023-04-16T00:55:48.046Z,0.00
2023-04-16T00:56:48.061Z,0.00
2023-04-16T00:57:48.003Z,0.00
2023-04-16T00:58:48.008Z,0.00
2023-04-16T00:59:48.027Z,0.00
2023-04-16T01:00:48.039Z,0.00
2023-04-16T01:01:47.998Z,0.00
2023-04-16T01:02:48.119Z,0.00
2023-04-16T01:03:47.985Z,0.00
2023-04-16T01:04:47.913Z,0.00
2023-04-16T01:05:47.933Z,0.00
2023-04-16T01:06:48.007Z,0.00
2023-04-16T01:07:47.932Z,0.00
2023-04-16T01:08:47.882Z,0.00
2023-04-16T01:09:47.716Z,0.00
2023-04-16T01:10:47.956Z,0.00
2023-04-16T01:11:48.189Z,0.00
2023-04-16T01:12:47.961Z,0.00
2023-04-16T01:13:47.889Z,0.00
2023-04-16T01:14:47.871Z,0.00
2023-04-16T01:15:47.985Z,0.00
2023-04-16T01:16:47.864Z,0.00
2023-04-16T01:17:47.869Z,0.00
2023-04-16T01:18:47.928Z,0.00
2023-04-16T01:19:47.854Z,0.00
2023-04-16T01:20:47.772Z,0.00
2023-04-16T01:21:47.880Z,0.00
2023-04-16T01:22:47.823Z,0.00
2023-04-16T01:23:47.819Z,0.00
2023-04-16T01:24:47.683Z,0.00
2023-04-16T01:25:47.786Z,0.00
2023-04-16T01:26:47.546Z,0.00
2023-04-16T01:27:47.764Z,0.00
2023-04-16T01:28:47.657Z,0.00
2023-04-16T01:29:47.642Z,0.00
2023-04-16T01:30:47.630Z,0.00
2023-04-16T01:31:47.673Z,0.00
2023-04-16T01:32:47.881Z,0.00
2023-04-16T01:33:47.680Z,0.00
2023-04-16T01:34:47.634Z,0.00
2023-04-16T01:35:47.630Z,0.00
2023-04-16T01:36:47.610Z,0.00
2023-04-16T01:37:47.693Z,0.00
2023-04-16T01:38:47.550Z,0.00
2023-04-16T01:39:47.516Z,0.00
2023-04-16T01:40:47.480Z,0.00
2023-04-16T01:41:47.573Z,0.00
2023-04-16T01:42:47.634Z,0.00
2023-04-16T01:43:47.623Z,0.00
2023-04-16T01:44:47.543Z,0.00
2023-04-16T01:45:47.386Z,0.00
2023-04-16T01:46:47.500Z,0.00
2023-04-16T01:47:47.553Z,0.00
2023-04-16T01:48:47.489Z,0.00
2023-04-16T01:49:47.568Z,0.00
2023-04-16T01:50:47.374Z,0.00
2023-04-16T01:51:47.415Z,0.00
2023-04-16T01:52:47.425Z,0.00
2023-04-16T01:53:47.501Z,0.00
2023-04-16T01:54:47.371Z,0.00
2023-04-16T01:55:47.485Z,0.00
2023-04-16T01:56:47.318Z,0.00
2023-04-16T01:57:47.335Z,0.00
2023-04-16T01:58:47.335Z,0.00
2023-04-16T01:59:47.361Z,0.00
2023-04-16T02:00:47.405Z,0.00
2023-04-16T02:01:47.452Z,0.00
2023-04-16T02:02:47.425Z,0.00
2023-04-16T02:03:47.452Z,0.00
2023-04-16T02:04:47.419Z,0.00
2023-04-16T02:05:47.320Z,0.00
2023-04-16T02:06:47.324Z,0.00
2023-04-16T02:07:47.264Z,0.00
2023-04-16T02:08:47.290Z,0.00
2023-04-16T02:09:47.301Z,0.00
2023-04-16T02:10:47.261Z,0.00
2023-04-16T02:11:47.338Z,0.00
2023-04-16T02:12:47.201Z,0.00
2023-04-16T02:13:47.224Z,0.00
2023-04-16T02:14:47.228Z,0.00
2023-04-16T02:15:47.310Z,0.00
2023-04-16T02:16:47.198Z,0.00
2023-04-16T02:17:47.174Z,0.00
2023-04-16T02:18:47.158Z,0.00
2023-04-16T02:19:47.154Z,0.00
2023-04-16T02:20:47.148Z,0.00
2023-04-16T02:21:47.213Z,0.00
2023-04-16T02:22:47.154Z,0.00
2023-04-16T02:23:46.982Z,0.00
2023-04-16T02:24:47.138Z,0.00
2023-04-16T02:25:47.157Z,0.00
2023-04-16T02:26:47.238Z,0.00
2023-04-16T02:27:47.098Z,0.00
2023-04-16T02:28:47.092Z,0.00
2023-04-16T02:29:47.100Z,0.00
2023-04-16T02:30:47.109Z,0.00
2023-04-16T02:31:47.038Z,0.00
2023-04-16T02:32:47.194Z,0.00
2023-04-16T02:33:47.049Z,0.00
2023-04-16T02:34:46.979Z,0.00
2023-04-16T02:35:46.994Z,0.00
2023-04-16T02:36:47.070Z,0.00
2023-04-16T02:37:47.089Z,0.00
2023-04-16T02:38:47.028Z,0.00
2023-04-16T02:39:46.879Z,0.00
2023-04-16T02:40:46.881Z,0.00
2023-04-16T02:41:46.925Z,0.00
2023-04-16T02:42:46.937Z,0.00
2023-04-16T02:43:47.017Z,0.00
2023-04-16T02:44:47.007Z,0.00
2023-04-16T02:45:46.950Z,0.00
2023-04-16T02:46:46.898Z,0.00
2023-04-16T02:47:46.989Z,0.00
2023-04-16T02:48:46.865Z,0.00
2023-04-16T02:49:46.724Z,0.00
2023-04-16T02:50:46.747Z,0.00
2023-04-16T02:51:46.833Z,0.00
2023-04-16T02:52:46.830Z,0.00
2023-04-16T02:53:46.884Z,0.00
2023-04-16T02:54:46.791Z,0.00
2023-04-16T02:55:46.785Z,0.00
2023-04-16T02:56:46.780Z,0.00
2023-04-16T02:57:46.767Z,0.00
2023-04-16T02:58:46.757Z,0.00
2023-04-16T02:59:46.819Z,0.00
2023-04-16T03:00:46.730Z,0.00
2023-04-16T03:01:46.804Z,0.00
2023-04-16T03:02:46.831Z,0.00
2023-04-16T03:03:46.764Z,0.00
2023-04-16T03:04:46.832Z,0.00
2023-04-16T03:05:46.717Z,0.00
2023-04-16T03:06:46.700Z,0.00
2023-04-16T03:07:46.685Z,0.00
2023-04-16T03:08:46.689Z,0.00
2023-04-16T03:09:46.664Z,0.00
2023-04-16T03:10:46.734Z,0.00
2023-04-16T03:11:46.556Z,0.00
2023-04-16T03:12:46.614Z,0.00
2023-04-16T03:13:46.442Z,0.00
2023-04-16T03:14:46.692Z,0.00
2023-04-16T03:15:46.618Z,0.00
2023-04-16T03:16:46.699Z,0.00
2023-04-16T03:17:46.589Z,0.00
2023-04-16T03:18:46.629Z,0.00
2023-04-16T03:19:46.543Z,0.00
2023-04-16T03:20:46.530Z,0.00
2023-04-16T03:21:46.543Z,0.00
2023-04-16T03:22:46.616Z,0.00
2023-04-16T03:23:46.518Z,0.00
2023-04-16T03:24:46.510Z,0.00
2023-04-16T03:25:46.516Z,0.00
2023-04-16T03:26:46.569Z,0.00
2023-04-16T03:27:46.482Z,0.00
2023-04-16T03:28:46.538Z,0.00
2023-04-16T03:29:46.450Z,0.00
2023-04-16T03:30:46.488Z,0.00
2023-04-16T03:31:46.461Z,0.00
2023-04-16T03:32:46.482Z,0.00
2023-04-16T03:33:46.365Z,0.00
2023-04-16T03:34:46.405Z,0.00
2023-04-16T03:35:46.330Z,0.00
2023-04-16T03:36:46.353Z,0.00
2023-04-16T03:37:46.393Z,0.00
2023-04-16T03:38:46.375Z,0.00
2023-04-16T03:39:46.339Z,0.00
2023-04-16T03:40:46.362Z,0.00
2023-04-16T03:41:46.386Z,0.00
2023-04-16T03:42:46.312Z,0.00
2023-04-16T03:43:46.310Z,0.00
2023-04-16T03:44:46.305Z,0.00
2023-04-16T03:45:46.316Z,0.00
2023-04-16T03:46:46.311Z,0.00
2023-04-16T03:47:46.360Z,0.00
2023-04-16T03:48:46.253Z,0.00
2023-04-16T03:49:46.132Z,0.00
2023-04-16T03:50:46.335Z,0.00
2023-04-16T03:51:46.257Z,0.00
2023-04-16T03:52:46.179Z,0.00
2023-04-16T03:53:46.174Z,0.00
2023-04-16T03:54:46.237Z,0.00
2023-04-16T03:55:46.145Z,0.00
2023-04-16T03:56:46.132Z,0.00
2023-04-16T03:57:46.205Z,0.00
2023-04-16T03:58:46.085Z,0.00
2023-04-16T03:59:46.235Z,0.00
2023-04-16T04:00:46.133Z,0.00
2023-04-16T04:01:46.166Z,0.00
2023-04-16T04:02:46.308Z,0.00
2023-04-16T04:03:46.287Z,1.00
2023-04-16T04:04:46.094Z,1.00
2023-04-16T04:05:46.059Z,1.00
2023-04-16T04:06:45.988Z,1.00
2023-04-16T04:07:46.005Z,1.00
2023-04-16T04:08:46.016Z,2.00
2023-04-16T04:09:46.087Z,2.00
2023-04-16T04:10:46.062Z,2.00
2023-04-16T04:11:45.958Z,2.00
2023-04-16T04:12:45.961Z,3.00
2023-04-16T04:13:45.956Z,3.00
2023-04-16T04:14:45.787Z,4.00
2023-04-16T04:15:46.023Z,3.00
2023-04-16T04:16:46.069Z,7.00
2023-04-16T04:17:45.782Z,6.00
2023-04-16T04:18:45.930Z,6.00
2023-04-16T04:20:00.095Z,10.00
2023-04-16T04:20:45.908Z,7.00
2023-04-16T04:21:45.894Z,5.00
2023-04-16T04:22:45.960Z,15.00
2023-04-16T04:23:45.861Z,14.00
2023-04-16T04:24:45.846Z,13.00
2023-04-16T04:25:45.693Z,13.00
2023-04-16T04:26:45.874Z,16.00
2023-04-16T04:27:45.760Z,15.00
2023-04-16T04:28:45.816Z,17.00
2023-04-16T04:29:45.783Z,16.00
2023-04-16T04:30:45.767Z,18.00
2023-04-16T04:31:45.808Z,25.00
2023-04-16T04:32:45.756Z,26.00
2023-04-16T04:33:45.696Z,26.00
2023-04-16T04:34:45.736Z,28.00
2023-04-16T04:35:45.700Z,27.00
2023-04-16T04:36:45.843Z,27.00
2023-04-16T04:37:45.653Z,27.00
2023-04-16T04:38:45.645Z,29.00
2023-04-16T04:39:45.639Z,34.00
2023-04-16T04:40:45.635Z,38.00
2023-04-16T04:41:45.626Z,40.00
2023-04-16T04:42:45.486Z,39.00
2023-04-16T04:43:45.632Z,39.00
2023-04-16T04:44:45.722Z,40.00
2023-04-16T04:45:45.600Z,42.00
2023-04-16T04:46:45.606Z,42.00
2023-04-16T04:47:45.709Z,42.00
2023-04-16T04:48:45.669Z,49.00
2023-04-16T04:49:45.574Z,50.00
2023-04-16T04:50:45.586Z,50.00
2023-04-16T04:51:45.517Z,51.00
2023-04-16T04:52:45.619Z,53.00
2023-04-16T04:53:45.489Z,54.00
2023-04-16T04:54:45.375Z,56.00
2023-04-16T04:55:45.534Z,57.00
2023-04-16T04:56:45.359Z,59.00
2023-04-16T04:57:45.378Z,64.00
2023-04-16T04:58:45.460Z,67.00
2023-04-16T04:59:45.460Z,69.00
2023-04-16T05:00:45.323Z,74.00
2023-04-16T05:01:45.452Z,77.00
2023-04-16T05:02:45.382Z,78.00
2023-04-16T05:03:45.357Z,80.00
2023-04-16T05:04:45.306Z,79.00
2023-04-16T05:05:45.300Z,85.00
2023-04-16T05:06:45.406Z,87.00
2023-04-16T05:07:45.322Z,89.00
2023-04-16T05:08:45.218Z,92.00
2023-04-16T05:09:45.479Z,93.00
2023-04-16T05:10:45.250Z,100.00
2023-04-16T05:11:45.209Z,89.00
2023-04-16T05:12:45.162Z,103.00
2023-04-16T05:13:45.330Z,116.00
2023-04-16T05:14:45.387Z,123.00
2023-04-16T05:15:45.302Z,121.00
2023-04-16T05:16:45.249Z,110.00
2023-04-16T05:17:45.368Z,117.00
2023-04-16T05:18:45.117Z,129.00
2023-04-16T05:19:45.226Z,141.00
2023-04-16T05:20:45.352Z,138.00
2023-04-16T05:21:45.197Z,132.00
2023-04-16T05:22:45.246Z,127.00
2023-04-16T05:23:45.252Z,125.00
2023-04-16T05:24:45.064Z,143.00
2023-04-16T05:25:45.262Z,132.00
2023-04-16T05:26:45.195Z,135.00
2023-04-16T05:27:45.190Z,115.00
2023-04-16T05:28:45.035Z,128.00
2023-04-16T05:29:45.057Z,135.00
2023-04-16T05:30:45.060Z,155.00
2023-04-16T05:31:45.159Z,172.00
2023-04-16T05:32:45.148Z,177.00
2023-04-16T05:33:45.229Z,171.00
2023-04-16T05:34:45.205Z,170.00
2023-04-16T05:35:45.055Z,175.00
2023-04-16T05:36:45.032Z,163.00
2023-04-16T05:37:45.142Z,155.00
2023-04-16T05:38:45.034Z,153.00
2023-04-16T05:39:45.034Z,158.00
2023-04-16T05:40:45.128Z,151.00
2023-04-16T05:41:44.982Z,178.00
2023-04-16T05:42:44.931Z,159.00
2023-04-16T05:43:44.968Z,142.00
2023-04-16T05:44:44.969Z,137.00
2023-04-16T05:45:45.072Z,138.00
2023-04-16T05:46:44.923Z,132.00
2023-04-16T05:47:45.027Z,129.00
2023-04-16T05:48:44.964Z,134.00
2023-04-16T05:49:44.963Z,134.00
2023-04-16T05:50:44.892Z,151.00
2023-04-16T05:51:44.966Z,153.00
2023-04-16T05:52:44.886Z,159.00
2023-04-16T05:53:44.883Z,160.00
2023-04-16T05:54:44.767Z,159.00
2023-04-16T05:55:44.871Z,154.00
2023-04-16T05:56:44.876Z,155.00
2023-04-16T05:57:44.793Z,167.00
2023-04-16T05:58:44.685Z,163.00
2023-04-16T05:59:45.005Z,180.00
2023-04-16T06:00:44.707Z,176.00
2023-04-16T06:01:44.619Z,179.00
2023-04-16T06:02:45.033Z,199.00
2023-04-16T06:03:44.828Z,204.00
2023-04-16T06:04:44.643Z,213.00
2023-04-16T06:05:44.843Z,216.00
2023-04-16T06:06:44.685Z,224.00
2023-04-16T06:07:44.658Z,228.00
2023-04-16T06:08:44.590Z,209.00
2023-04-16T06:09:44.587Z,226.00
2023-04-16T06:10:44.537Z,219.00
2023-04-16T06:11:44.548Z,215.00
2023-04-16T06:12:44.538Z,190.00
2023-04-16T06:13:44.596Z,188.00
2023-04-16T06:14:44.635Z,224.00
2023-04-16T06:15:44.585Z,180.00
2023-04-16T06:16:44.561Z,192.00
2023-04-16T06:17:44.639Z,210.00
2023-04-16T06:18:44.579Z,283.00
2023-04-16T06:19:44.590Z,326.00
2023-04-16T06:20:44.692Z,313.00
2023-04-16T06:21:44.603Z,297.00
2023-04-16T06:22:44.614Z,293.00
2023-04-16T06:23:44.577Z,301.00
2023-04-16T06:24:44.640Z,298.00
2023-04-16T06:25:44.569Z,299.00
2023-04-16T06:26:44.635Z,273.00
2023-04-16T06:27:44.631Z,305.00
2023-04-16T06:28:44.561Z,264.00
2023-04-16T06:29:44.419Z,294.00
2023-04-16T06:30:44.901Z,307.00
2023-04-16T06:31:44.619Z,302.00
2023-04-16T06:32:44.666Z,279.00
2023-04-16T06:33:44.450Z,303.00
2023-04-16T06:34:44.458Z,276.00
2023-04-16T06:35:44.567Z,243.00
2023-04-16T06:36:44.457Z,231.00
2023-04-16T06:37:44.453Z,231.00
2023-04-16T06:38:44.464Z,231.00
2023-04-16T06:39:44.556Z,249.00
2023-04-16T06:40:44.436Z,237.00
2023-04-16T06:41:44.375Z,235.00
2023-04-16T06:42:45.667Z,201.00
2023-04-16T06:43:44.272Z,286.00
2023-04-16T06:44:44.364Z,331.00
2023-04-16T06:45:44.204Z,327.00
2023-04-16T06:46:44.278Z,332.00
2023-04-16T06:47:44.322Z,303.00
2023-04-16T06:48:44.190Z,317.00
2023-04-16T06:49:44.307Z,437.00
2023-04-16T06:50:44.252Z,399.00
2023-04-16T06:51:44.254Z,400.00
2023-04-16T06:52:44.257Z,600.00
2023-04-16T06:53:44.332Z,721.00
2023-04-16T06:54:44.238Z,645.00
2023-04-16T06:55:44.211Z,586.00
2023-04-16T06:56:44.199Z,663.00
2023-04-16T06:57:44.282Z,719.00
2023-04-16T06:58:44.200Z,667.00
2023-04-16T06:59:44.214Z,655.00
2023-04-16T07:00:44.120Z,727.00
2023-04-16T07:01:44.272Z,715.00
2023-04-16T07:02:44.379Z,681.00
2023-04-16T07:03:44.183Z,761.00
2023-04-16T07:04:43.976Z,751.00
2023-04-16T07:05:44.139Z,845.00
2023-04-16T07:06:43.987Z,748.00
2023-04-16T07:07:44.194Z,1062.00
2023-04-16T07:08:43.981Z,975.00
2023-04-16T07:09:43.968Z,887.00
2023-04-16T07:10:43.915Z,863.00
2023-04-16T07:11:44.085Z,690.00
2023-04-16T07:12:44.099Z,608.00
2023-04-16T07:13:43.925Z,684.00
2023-04-16T07:14:43.937Z,899.00
2023-04-16T07:15:43.935Z,1032.00
2023-04-16T07:16:43.988Z,1000.00
2023-04-16T07:17:44.089Z,860.00
2023-04-16T07:18:44.124Z,759.00
2023-04-16T07:19:43.973Z,832.00
2023-04-16T07:20:43.875Z,902.00
2023-04-16T07:21:43.981Z,792.00
2023-04-16T07:22:44.032Z,816.00
2023-04-16T07:23:44.067Z,761.00
2023-04-16T07:24:43.943Z,994.00
2023-04-16T07:25:44.572Z,1216.00
2023-04-16T07:26:43.939Z,1550.00
2023-04-16T07:27:43.744Z,1552.00
2023-04-16T07:28:43.908Z,1378.00
2023-04-16T07:29:43.918Z,1358.00
2023-04-16T07:30:43.865Z,1472.00
2023-04-16T07:31:43.968Z,1609.00
2023-04-16T07:32:43.968Z,1711.00
2023-04-16T07:33:43.855Z,1410.00
2023-04-16T07:34:43.818Z,1416.00
2023-04-16T07:35:43.824Z,1395.00
2023-04-16T07:36:43.695Z,1329.00
2023-04-16T07:37:43.853Z,1476.00
2023-04-16T07:38:43.747Z,1604.00
2023-04-16T07:39:43.735Z,1917.00
2023-04-16T07:40:43.875Z,1808.00
2023-04-16T07:41:43.687Z,1841.00
2023-04-16T07:42:43.740Z,1785.00
2023-04-16T07:43:43.732Z,1719.00
2023-04-16T07:44:43.715Z,2068.00
2023-04-16T07:45:43.720Z,2719.00
2023-04-16T07:46:47.313Z,2689.00
2023-04-16T07:47:43.724Z,2522.00
2023-04-16T07:48:43.725Z,1975.00
2023-04-16T07:49:43.706Z,1742.00
2023-04-16T07:50:43.774Z,1644.00
2023-04-16T07:51:43.710Z,1682.00
2023-04-16T07:52:43.684Z,1927.00
2023-04-16T07:53:43.510Z,1670.00
2023-04-16T07:54:43.717Z,1899.00
2023-04-16T07:55:43.687Z,1774.00
2023-04-16T07:56:43.833Z,1652.00
2023-04-16T07:57:43.695Z,1405.00
2023-04-16T07:58:43.583Z,1052.00
2023-04-16T07:59:43.640Z,907.00
2023-04-16T08:00:43.576Z,873.00
2023-04-16T08:01:43.550Z,802.00
2023-04-16T08:02:43.823Z,815.00
2023-04-16T08:03:43.877Z,792.00
2023-04-16T08:04:43.937Z,780.00
2023-04-16T08:05:43.362Z,805.00
2023-04-16T08:06:43.586Z,856.00
2023-04-16T08:07:43.637Z,837.00
2023-04-16T08:08:43.649Z,781.00
2023-04-16T08:09:43.496Z,1281.00
2023-04-16T08:10:43.475Z,1473.00
2023-04-16T08:11:43.471Z,1604.00
2023-04-16T08:12:43.610Z,1662.00
2023-04-16T08:13:43.533Z,1242.00
2023-04-16T08:14:43.325Z,1152.00
2023-04-16T08:15:43.573Z,1260.00
2023-04-16T08:16:43.508Z,1382.00
2023-04-16T08:17:43.569Z,1367.00
2023-04-16T08:18:43.577Z,1489.00
2023-04-16T08:19:43.462Z,1585.00
2023-04-16T08:20:43.237Z,1504.00
2023-04-16T08:21:43.218Z,1381.00
2023-04-16T08:22:43.364Z,1466.00
2023-04-16T08:23:43.241Z,1473.00
2023-04-16T08:24:43.307Z,2366.00
2023-04-16T08:25:43.474Z,2957.00
2023-04-16T08:26:43.378Z,2699.00
2023-04-16T08:27:43.346Z,2097.00
2023-04-16T08:28:43.392Z,2230.00
2023-04-16T08:29:43.274Z,2477.00
2023-04-16T08:30:43.249Z,2502.00
2023-04-16T08:31:43.281Z,2661.00
2023-04-16T08:32:43.301Z,2932.00
2023-04-16T08:33:43.320Z,2389.00
2023-04-16T08:34:43.299Z,2198.00
2023-04-16T08:35:43.225Z,2509.00
2023-04-16T08:36:43.071Z,2785.00
2023-04-16T08:37:43.210Z,2540.00
2023-04-16T08:38:43.190Z,2038.00
2023-04-16T08:39:43.261Z,1723.00
2023-04-16T08:40:43.157Z,1949.00
2023-04-16T08:41:43.139Z,2050.00
2023-04-16T08:42:43.187Z,1666.00
2023-04-16T08:43:43.175Z,1594.00
2023-04-16T08:44:43.234Z,1807.00
2023-04-16T08:45:43.131Z,1817.00
2023-04-16T08:46:43.142Z,1902.00
2023-04-16T08:47:43.125Z,1828.00
2023-04-16T08:48:43.113Z,1726.00
2023-04-16T08:49:43.175Z,1891.00
2023-04-16T08:50:43.148Z,1750.00
2023-04-16T08:51:43.135Z,1814.00
2023-04-16T08:52:43.032Z,2199.00
2023-04-16T08:53:42.996Z,1927.00
2023-04-16T08:54:43.049Z,1784.00
2023-04-16T08:55:43.011Z,1689.00
2023-04-16T08:56:43.325Z,1711.00
2023-04-16T08:57:42.886Z,1612.00
2023-04-16T08:58:42.974Z,1498.00
2023-04-16T08:59:42.962Z,1772.00
2023-04-16T09:00:42.993Z,2163.00
2023-04-16T09:01:43.000Z,2077.00
2023-04-16T09:02:43.171Z,2116.00
2023-04-16T09:03:43.063Z,1974.00
2023-04-16T09:04:43.261Z,2064.00
2023-04-16T09:05:42.805Z,2088.00
2023-04-16T09:06:42.842Z,2174.00
2023-04-16T09:07:42.881Z,2709.00
2023-04-16T09:08:42.894Z,2621.00
2023-04-16T09:09:42.889Z,2200.00
2023-04-16T09:10:42.884Z,1859.00
2023-04-16T09:11:42.744Z,1883.00
2023-04-16T09:12:42.665Z,1753.00
2023-04-16T09:13:42.735Z,1976.00
2023-04-16T09:14:42.792Z,2716.00
2023-04-16T09:15:42.803Z,2393.00
2023-04-16T09:16:42.825Z,2357.00
2023-04-16T09:17:42.862Z,2461.00
2023-04-16T09:18:42.754Z,2635.00
2023-04-16T09:19:42.742Z,2401.00
2023-04-16T09:20:42.599Z,3342.00
2023-04-16T09:21:42.719Z,3486.00
2023-04-16T09:22:42.635Z,3004.00
2023-04-16T09:23:42.789Z,2375.00
2023-04-16T09:24:42.777Z,2591.00
2023-04-16T09:25:42.624Z,2595.00
2023-04-16T09:26:42.708Z,3309.00
2023-04-16T09:27:42.694Z,3450.00
2023-04-16T09:28:42.765Z,2968.00
2023-04-16T09:29:42.579Z,2445.00
2023-04-16T09:30:42.611Z,2208.00
2023-04-16T09:31:42.619Z,2354.00
2023-04-16T09:32:42.672Z,2204.00
2023-04-16T09:33:42.693Z,1821.00
2023-04-16T09:34:42.514Z,2193.00
2023-04-16T09:35:42.518Z,2147.00
2023-04-16T09:36:42.413Z,1838.00
2023-04-16T09:37:42.418Z,1557.00
2023-04-16T09:38:42.457Z,1252.00
2023-04-16T09:39:42.359Z,1075.00
2023-04-16T09:40:42.465Z,1221.00
2023-04-16T09:41:42.348Z,1448.00
2023-04-16T09:42:42.410Z,1393.00
2023-04-16T09:43:42.377Z,1281.00
2023-04-16T09:44:42.357Z,1236.00
2023-04-16T09:45:42.418Z,1311.00
2023-04-16T09:46:42.393Z,1744.00
2023-04-16T09:47:42.362Z,1646.00
2023-04-16T09:48:42.448Z,1580.00
2023-04-16T09:49:42.275Z,1633.00
2023-04-16T09:50:42.333Z,1499.00
2023-04-16T09:51:42.315Z,1428.00
2023-04-16T09:52:42.269Z,1502.00
2023-04-16T09:53:42.324Z,1542.00
2023-04-16T09:54:42.299Z,1731.00
2023-04-16T09:55:42.322Z,1475.00
2023-04-16T09:56:42.280Z,1277.00
2023-04-16T09:57:42.355Z,1502.00
2023-04-16T09:58:42.428Z,1298.00
2023-04-16T09:59:42.335Z,1206.00
2023-04-16T10:00:43.674Z,1143.00
2023-04-16T10:01:42.442Z,993.00
2023-04-16T10:02:42.757Z,1052.00
2023-04-16T10:03:42.484Z,1130.00
2023-04-16T10:04:42.294Z,1262.00
2023-04-16T10:05:42.274Z,1461.00
2023-04-16T10:06:42.297Z,1458.00
2023-04-16T10:07:42.129Z,1340.00
2023-04-16T10:08:42.056Z,1225.00
2023-04-16T10:09:42.105Z,1475.00
2023-04-16T10:10:42.127Z,1724.00
2023-04-16T10:11:42.183Z,2928.00
2023-04-16T10:12:42.222Z,2639.00
2023-04-16T10:13:42.135Z,2932.00
2023-04-16T10:14:42.050Z,3617.00
2023-04-16T10:15:42.183Z,4092.00
2023-04-16T10:16:42.021Z,3725.00
2023-04-16T10:17:41.992Z,2967.00
2023-04-16T10:18:42.117Z,2879.00
2023-04-16T10:19:42.109Z,3526.00
2023-04-16T10:20:42.002Z,3484.00
2023-04-16T10:21:42.076Z,3243.00
2023-04-16T10:22:42.140Z,2904.00
2023-04-16T10:23:42.046Z,2407.00
2023-04-16T10:24:42.055Z,2016.00
2023-04-16T10:25:42.031Z,2401.00
2023-04-16T10:26:42.036Z,2672.00
2023-04-16T10:27:42.015Z,2700.00
2023-04-16T10:28:42.089Z,2223.00
2023-04-16T10:29:42.015Z,1927.00
2023-04-16T10:30:42.025Z,1685.00
2023-04-16T10:31:42.008Z,1603.00
2023-04-16T10:32:42.050Z,1751.00
2023-04-16T10:33:41.950Z,1864.00
2023-04-16T10:34:41.886Z,1729.00
2023-04-16T10:35:41.796Z,1648.00
2023-04-16T10:36:41.956Z,1673.00
2023-04-16T10:37:41.957Z,2131.00
2023-04-16T10:38:41.840Z,2321.00
2023-04-16T10:39:41.832Z,2430.00
2023-04-16T10:40:41.819Z,2586.00
2023-04-16T10:41:41.702Z,2893.00
2023-04-16T10:42:41.757Z,2898.00
2023-04-16T10:43:41.788Z,2913.00
2023-04-16T10:44:45.012Z,3400.00
2023-04-16T10:45:41.668Z,3514.00
2023-04-16T10:46:41.852Z,3379.00
2023-04-16T10:47:41.859Z,3323.00
2023-04-16T10:48:49.591Z,3415.00
2023-04-16T10:49:41.831Z,2751.00
2023-04-16T10:50:41.809Z,3378.00
2023-04-16T10:51:41.816Z,3242.00
2023-04-16T10:52:41.783Z,4029.00
2023-04-16T10:53:41.707Z,3536.00
2023-04-16T10:54:41.796Z,2975.00
2023-04-16T10:55:41.727Z,2558.00
2023-04-16T10:56:41.888Z,2483.00
2023-04-16T10:57:41.717Z,2647.00
2023-04-16T10:58:41.722Z,2361.00
2023-04-16T10:59:41.793Z,2862.00
2023-04-16T11:00:41.805Z,3154.00
2023-04-16T11:01:41.798Z,3151.00
2023-04-16T11:02:41.824Z,3114.00
2023-04-16T11:03:41.595Z,2635.00
2023-04-16T11:04:41.603Z,2182.00
2023-04-16T11:05:41.551Z,2226.00
2023-04-16T11:06:41.581Z,2025.00
2023-04-16T11:07:41.445Z,2346.00
2023-04-16T11:08:53.857Z,2316.00
2023-04-16T11:09:41.469Z,2417.00
2023-04-16T11:10:41.504Z,2432.00
2023-04-16T11:11:41.427Z,2183.00
2023-04-16T11:12:41.439Z,1733.00
2023-04-16T11:13:43.497Z,1787.00
2023-04-16T11:14:41.434Z,1604.00
2023-04-16T11:15:41.397Z,1397.00
2023-04-16T11:16:41.425Z,1362.00
2023-04-16T11:17:41.441Z,1329.00
2023-04-16T11:18:41.623Z,1413.00
2023-04-16T11:19:41.521Z,1464.00
2023-04-16T11:20:41.494Z,1248.00
2023-04-16T11:21:41.483Z,1292.00
2023-04-16T11:22:41.444Z,1671.00
2023-04-16T11:23:41.482Z,1984.00
2023-04-16T11:24:41.435Z,1746.00
2023-04-16T11:25:41.401Z,2159.00
2023-04-16T11:26:41.374Z,2420.00
2023-04-16T11:27:41.348Z,2383.00
2023-04-16T11:28:41.256Z,2316.00
2023-04-16T11:29:41.387Z,2384.00
2023-04-16T11:30:41.375Z,2532.00
2023-04-16T11:31:41.986Z,2225.00
2023-04-16T11:32:41.245Z,2600.00
2023-04-16T11:33:41.220Z,2297.00
2023-04-16T11:34:41.195Z,2378.00
2023-04-16T11:35:41.238Z,2041.00
2023-04-16T11:36:41.300Z,1892.00
2023-04-16T11:37:41.169Z,2086.00
2023-04-16T11:38:41.194Z,2225.00
2023-04-16T11:39:41.241Z,2496.00
2023-04-16T11:40:41.334Z,2513.00
2023-04-16T11:41:41.256Z,2345.00
2023-04-16T11:42:41.243Z,2150.00
2023-04-16T11:43:41.272Z,2065.00
2023-04-16T11:44:41.191Z,2331.00
2023-04-16T11:45:41.096Z,2092.00
2023-04-16T11:46:41.285Z,2219.00
2023-04-16T11:47:41.275Z,1908.00
2023-04-16T11:48:41.174Z,1806.00
2023-04-16T11:49:41.155Z,1596.00
2023-04-16T11:50:41.230Z,1355.00
2023-04-16T11:51:41.185Z,1484.00
2023-04-16T11:52:41.095Z,1532.00
2023-04-16T11:53:41.110Z,1894.00
2023-04-16T11:54:41.137Z,1897.00
2023-04-16T11:55:41.081Z,1972.00
2023-04-16T11:56:40.922Z,1895.00
2023-04-16T11:57:41.117Z,1903.00
2023-04-16T11:58:43.249Z,2028.00
2023-04-16T12:00:01.524Z,2124.00
2023-04-16T12:00:41.157Z,2047.00
2023-04-16T12:01:40.954Z,2032.00
2023-04-16T12:02:41.229Z,2017.00
2023-04-16T12:03:41.191Z,2366.00
2023-04-16T12:04:41.065Z,3025.00
2023-04-16T12:05:40.977Z,2662.00
2023-04-16T12:06:41.026Z,2312.00
2023-04-16T12:07:41.013Z,2099.00
2023-04-16T12:08:40.974Z,2156.00
2023-04-16T12:09:41.207Z,2231.00
2023-04-16T12:10:40.834Z,2433.00
2023-04-16T12:11:40.713Z,2174.00
2023-04-16T12:12:40.784Z,2152.00
2023-04-16T12:13:40.761Z,2291.00
2023-04-16T12:14:40.766Z,1926.00
2023-04-16T12:15:40.718Z,1979.00
2023-04-16T12:16:40.876Z,1695.00
2023-04-16T12:17:40.719Z,1584.00
2023-04-16T12:18:40.711Z,1581.00
2023-04-16T12:19:40.710Z,1701.00
2023-04-16T12:20:40.781Z,1894.00
2023-04-16T12:21:40.717Z,2067.00
2023-04-16T12:22:40.785Z,2228.00
2023-04-16T12:23:40.740Z,2029.00
2023-04-16T12:24:40.615Z,2198.00
2023-04-16T12:25:40.681Z,2268.00
2023-04-16T12:26:40.681Z,2345.00
2023-04-16T12:27:40.716Z,1905.00
2023-04-16T12:28:40.725Z,1848.00
2023-04-16T12:29:40.638Z,2277.00
2023-04-16T12:30:40.604Z,1988.00
2023-04-16T12:31:40.580Z,1800.00
2023-04-16T12:32:40.574Z,2132.00
2023-04-16T12:33:40.752Z,1924.00
2023-04-16T12:34:49.059Z,1604.00
2023-04-16T12:35:40.529Z,1625.00
2023-04-16T12:36:40.660Z,1728.00